Terminal Aerodrome Forecast
Issued by NWS Twin Cities, MN

Home | Current Version | Previous Version | Text Only | Print | Product List | Glossary On
Versions: 1 2 3 4 5 6 7 8 9 10 11 12 13 14 15 16
185
FTUS43 KMPX 280806 AAA
TAFSTC
TAF AMD
KSTC 280806Z 2808/2906 28007KT P6SM OVC040
      TEMPO 2808/2810 BKN025
     FM281100 30005KT P6SM SKC
     FM281700 34009KT P6SM SCT250
     FM290100 36005KT P6SM BKN180=

USA.gov is the U.S. government's official web portal to all federal, state and local government web resources and services.